Time;durP1;ratioP1;P1;durP2;ratioP2;P2;SDS_P1;SDS_P2;PMS_P1;PMS_P2;Temp;Humidity;BMP_temperature;BMP_pressure;BME280_temperature;BME280_humidity;BME280_pressure;Samples;Min_cycle;Max_cycle;Signal;HPM_P1;HPM_P2
2022/10/05 00:01:26;;;;;;;9.20;7.77;;;19.60;99.90;;;;;;5141612;27;20493;-65
2022/10/05 00:04:02;;;;;;;8.90;7.47;;;19.40;99.90;;;;;;5131162;27;20434;-65
2022/10/05 00:06:33;;;;;;;10.30;8.50;;;19.40;99.90;;;;;;5142332;27;20529;-64
2022/10/05 00:09:13;;;;;;;8.60;7.10;;;19.50;99.90;;;;;;5142851;27;20412;-65
2022/10/05 00:11:44;;;;;;;12.10;7.93;;;19.40;99.90;;;;;;5142570;27;20442;-65
2022/10/05 00:14:18;;;;;;;10.70;7.43;;;19.40;99.90;;;;;;5143225;27;20478;-65
2022/10/05 00:16:50;;;;;;;9.33;7.90;;;19.40;99.90;;;;;;5110827;28;20480;-65
2022/10/05 00:19:24;;;;;;;10.33;7.40;;;19.50;99.90;;;;;;5140999;28;20482;-65
2022/10/05 00:21:59;;;;;;;10.50;8.10;;;19.40;99.90;;;;;;5139606;27;20458;-65
2022/10/05 00:24:30;;;;;;;10.13;7.03;;;19.40;99.90;;;;;;5138130;27;20444;-65
2022/10/05 00:27:02;;;;;;;11.47;7.33;;;19.50;99.90;;;;;;5131941;27;20419;-65
2022/10/05 00:29:36;;;;;;;9.83;8.43;;;19.50;99.90;;;;;;5120074;28;20416;-64
2022/10/05 00:32:10;;;;;;;9.10;7.50;;;19.40;99.90;;;;;;5133073;28;20465;-64
2022/10/05 00:34:42;;;;;;;9.00;7.43;;;19.30;99.90;;;;;;5125349;27;20919;-64
2022/10/05 00:37:14;;;;;;;8.60;6.47;;;19.20;99.90;;;;;;5142457;27;20423;-65
2022/10/05 00:39:45;;;;;;;8.57;7.13;;;19.20;99.90;;;;;;5131462;27;20472;-64
2022/10/05 00:42:37;;;;;;;7.80;7.00;;;19.10;99.90;;;;;;5138722;27;20438;-65
2022/10/05 00:45:13;;;;;;;9.30;6.60;;;19.20;99.90;;;;;;5108787;28;20543;-64
2022/10/05 00:47:58;;;;;;;8.97;6.67;;;19.10;99.90;;;;;;5133151;27;20470;-64
2022/10/05 00:50:48;;;;;;;8.17;7.33;;;19.00;99.90;;;;;;5116046;28;20429;-64
2022/10/05 00:53:31;;;;;;;7.03;6.13;;;18.90;99.90;;;;;;5140574;28;20428;-65
2022/10/05 00:56:08;;;;;;;13.67;11.03;;;18.90;99.90;;;;;;5108336;28;20433;-66
2022/10/05 00:58:53;;;;;;;14.00;12.10;;;18.80;99.90;;;;;;5108089;28;20515;-63
2022/10/05 01:01:31;;;;;;;11.93;10.60;;;18.90;99.90;;;;;;5113914;28;20522;-63
2022/10/05 01:04:14;;;;;;;24.80;21.10;;;18.90;99.90;;;;;;5116576;27;20481;-64
2022/10/05 01:06:56;;;;;;;13.27;11.47;;;18.80;99.90;;;;;;5128366;27;20496;-64
2022/10/05 01:09:34;;;;;;;48.20;42.97;;;18.70;99.90;;;;;;5124717;27;20525;-65
2022/10/05 01:12:13;;;;;;;38.83;34.93;;;18.70;99.90;;;;;;5110103;27;20432;-64
2022/10/05 01:14:52;;;;;;;23.97;21.80;;;18.60;99.90;;;;;;5121657;27;20511;-66
2022/10/05 01:17:29;;;;;;;19.03;17.13;;;18.40;99.90;;;;;;5141839;27;20532;-66
2022/10/05 01:20:26;;;;;;;11.83;10.63;;;18.40;99.90;;;;;;5142943;27;20452;-64
2022/10/05 01:23:25;;;;;;;10.80;9.70;;;18.20;99.90;;;;;;5125696;27;20468;-64
2022/10/05 01:26:12;;;;;;;11.43;9.57;;;18.20;99.90;;;;;;5129041;27;20439;-64
2022/10/05 01:28:47;;;;;;;9.93;9.03;;;18.10;99.90;;;;;;5143037;27;20468;-65
2022/10/05 01:31:25;;;;;;;9.57;8.13;;;18.00;99.90;;;;;;5134257;27;20448;-65
2022/10/05 01:34:04;;;;;;;7.80;6.97;;;17.90;99.90;;;;;;5140110;27;20454;-64
2022/10/05 01:36:49;;;;;;;7.47;6.47;;;17.80;99.90;;;;;;5133367;27;20474;-65
2022/10/05 01:39:30;;;;;;;8.73;6.73;;;17.70;99.90;;;;;;5140531;27;20493;-65
2022/10/05 01:42:09;;;;;;;10.07;7.20;;;17.60;99.90;;;;;;5144644;27;20445;-66
2022/10/05 01:44:50;;;;;;;7.70;6.53;;;17.60;99.90;;;;;;5142614;27;20445;-65
2022/10/05 01:47:31;;;;;;;8.00;6.40;;;17.50;99.90;;;;;;5124651;27;20460;-66
2022/10/05 01:50:06;;;;;;;7.70;5.97;;;17.50;99.90;;;;;;5140975;27;20447;-67
2022/10/05 01:52:48;;;;;;;9.73;7.13;;;17.40;99.90;;;;;;5132590;27;20464;-66
2022/10/05 01:55:25;;;;;;;8.23;6.73;;;17.30;99.90;;;;;;5125883;27;20420;-68
2022/10/05 01:58:07;;;;;;;7.43;5.90;;;17.30;99.90;;;;;;5139513;27;20442;-66
2022/10/05 02:00:46;;;;;;;7.00;6.00;;;17.20;99.90;;;;;;5130349;27;20476;-67
2022/10/05 02:03:21;;;;;;;7.63;6.67;;;17.20;99.90;;;;;;5134171;27;20494;-67
2022/10/05 02:05:57;;;;;;;9.07;7.13;;;17.10;99.90;;;;;;5143092;27;20608;-67
2022/10/05 02:08:35;;;;;;;9.17;6.63;;;17.00;99.90;;;;;;5117735;27;20464;-67
2022/10/05 02:11:09;;;;;;;7.57;6.47;;;17.00;99.90;;;;;;5124641;27;20433;-65
2022/10/05 02:13:43;;;;;;;7.87;5.97;;;16.90;99.90;;;;;;5129452;27;20427;-66
2022/10/05 02:16:19;;;;;;;8.50;6.80;;;16.80;99.90;;;;;;5139772;27;20452;-65
2022/10/05 02:18:53;;;;;;;7.40;6.30;;;16.70;99.90;;;;;;5103561;28;20995;-65
2022/10/05 02:21:25;;;;;;;7.80;5.77;;;16.60;99.90;;;;;;5114574;28;20461;-65
2022/10/05 02:24:00;;;;;;;7.17;6.00;;;16.50;99.90;;;;;;5106378;27;20455;-68
2022/10/05 02:26:34;;;;;;;9.13;6.50;;;16.50;99.90;;;;;;5124617;27;20458;-66
2022/10/05 02:29:08;;;;;;;7.70;6.63;;;16.40;99.90;;;;;;5123855;27;20462;-65
2022/10/05 02:31:45;;;;;;;8.50;6.27;;;16.40;99.90;;;;;;5124634;27;20457;-67
2022/10/05 02:34:24;;;;;;;10.30;7.07;;;16.40;99.90;;;;;;5125793;27;20494;-68
2022/10/05 02:37:08;;;;;;;9.60;6.57;;;16.40;99.90;;;;;;5138825;27;20493;-68
2022/10/05 02:39:47;;;;;;;9.43;6.47;;;16.30;99.90;;;;;;5124047;28;20480;-68
2022/10/05 02:42:28;;;;;;;7.57;6.60;;;16.30;99.90;;;;;;5127860;27;20468;-68
2022/10/05 02:45:10;;;;;;;8.20;7.40;;;16.20;99.90;;;;;;5109490;27;20511;-69
2022/10/05 02:47:50;;;;;;;7.07;5.70;;;16.10;99.90;;;;;;5113572;28;20454;-68
2022/10/05 02:50:27;;;;;;;8.03;5.90;;;16.10;99.90;;;;;;5127706;27;20420;-67
2022/10/05 02:53:13;;;;;;;9.13;6.30;;;16.10;99.90;;;;;;5133244;27;20452;-67
2022/10/05 02:55:54;;;;;;;7.80;6.70;;;16.00;99.90;;;;;;5126483;27;20440;-68
2022/10/05 02:58:28;;;;;;;9.30;7.10;;;16.00;99.90;;;;;;5133269;27;20927;-67
2022/10/05 03:01:04;;;;;;;10.80;6.43;;;15.90;99.90;;;;;;5132191;27;20926;-69
2022/10/05 03:03:42;;;;;;;9.00;6.60;;;15.90;99.90;;;;;;5137876;27;20460;-68
2022/10/05 03:06:20;;;;;;;9.07;6.63;;;16.00;99.90;;;;;;5135857;27;20540;-67
2022/10/05 03:09:00;;;;;;;7.23;5.53;;;15.90;99.90;;;;;;5144170;27;20453;-68
2022/10/05 03:11:42;;;;;;;7.23;6.53;;;15.80;99.90;;;;;;5130735;27;20449;-68
2022/10/05 03:14:19;;;;;;;9.17;6.10;;;15.80;99.90;;;;;;5129149;27;20468;-68
2022/10/05 03:17:04;;;;;;;9.73;6.10;;;15.70;99.90;;;;;;5134470;27;20452;-67
2022/10/05 03:20:03;;;;;;;10.93;7.00;;;15.70;99.90;;;;;;5129523;27;20499;-68
2022/10/05 03:22:47;;;;;;;8.70;6.20;;;15.70;99.90;;;;;;5143772;27;20451;-67
2022/10/05 03:25:57;;;;;;;8.87;7.03;;;15.60;99.90;;;;;;5143772;27;20513;-67
2022/10/05 03:28:33;;;;;;;8.30;6.20;;;15.60;99.90;;;;;;5059166;28;20453;-66
2022/10/05 03:31:07;;;;;;;9.90;7.17;;;15.50;99.90;;;;;;5046975;28;20992;-67
2022/10/05 03:33:47;;;;;;;7.63;6.83;;;15.50;99.90;;;;;;5047424;28;20457;-66
2022/10/05 03:36:27;;;;;;;10.17;7.40;;;15.50;99.90;;;;;;5030930;28;20477;-66
2022/10/05 03:39:04;;;;;;;8.23;7.30;;;15.40;99.90;;;;;;5041055;28;20568;-66
2022/10/05 03:41:42;;;;;;;11.07;8.03;;;15.40;99.90;;;;;;5041558;28;20441;-68
2022/10/05 03:44:25;;;;;;;12.40;8.20;;;15.40;99.90;;;;;;5048909;28;20457;-66
2022/10/05 03:47:08;;;;;;;7.67;6.83;;;15.40;99.90;;;;;;5025820;28;20466;-68
2022/10/05 03:50:01;;;;;;;9.23;6.20;;;15.40;99.90;;;;;;5054286;28;20452;-66
2022/10/05 03:52:39;;;;;;;9.23;7.40;;;15.40;99.90;;;;;;5036120;28;20587;-68
2022/10/05 03:55:21;;;;;;;9.60;7.70;;;15.40;99.90;;;;;;5045030;28;20465;-69
2022/10/05 03:57:55;;;;;;;7.43;6.70;;;15.30;99.90;;;;;;5041723;28;20492;-68
2022/10/05 04:00:26;;;;;;;10.63;7.63;;;15.30;99.90;;;;;;5040330;28;20481;-69
2022/10/05 04:03:03;;;;;;;9.80;7.77;;;15.20;99.90;;;;;;5099666;27;20480;-69
2022/10/05 04:05:39;;;;;;;8.43;7.50;;;15.10;99.90;;;;;;5122573;27;20538;-68
2022/10/05 04:08:21;;;;;;;10.33;7.60;;;15.10;99.90;;;;;;5133697;27;20491;-67
2022/10/05 04:10:55;;;;;;;9.37;7.40;;;15.20;99.90;;;;;;5126553;27;20456;-67
2022/10/05 04:13:32;;;;;;;9.03;7.90;;;15.10;99.90;;;;;;5132080;27;20472;-65
2022/10/05 04:16:07;;;;;;;9.70;8.70;;;15.00;99.90;;;;;;5142639;27;20565;-65
2022/10/05 04:18:42;;;;;;;9.53;7.93;;;15.00;99.90;;;;;;5118553;27;20473;-64
2022/10/05 04:21:19;;;;;;;8.80;7.00;;;14.90;99.90;;;;;;5133327;28;20536;-65
2022/10/05 04:23:59;;;;;;;12.20;9.23;;;15.00;99.90;;;;;;5136171;27;20484;-66
2022/10/05 04:26:37;;;;;;;9.80;8.07;;;15.00;99.90;;;;;;5119918;28;20814;-66
2022/10/05 04:29:17;;;;;;;9.73;7.70;;;15.00;99.90;;;;;;5138131;27;20491;-64
2022/10/05 04:32:07;;;;;;;11.00;7.73;;;14.90;99.90;;;;;;5140354;28;20448;-66
2022/10/05 04:35:00;;;;;;;8.87;7.57;;;14.80;99.90;;;;;;5133186;27;20520;-68
2022/10/05 04:37:42;;;;;;;9.60;7.57;;;14.70;99.90;;;;;;5142998;27;20453;-67
2022/10/05 04:40:30;;;;;;;9.97;7.70;;;14.70;99.90;;;;;;5129877;27;20484;-67
2022/10/05 04:43:10;;;;;;;9.33;7.23;;;14.60;99.90;;;;;;5143253;27;20550;-67
2022/10/05 04:45:57;;;;;;;9.00;7.63;;;14.70;99.90;;;;;;5147009;27;20433;-67
2022/10/05 04:48:47;;;;;;;11.90;7.70;;;14.60;99.90;;;;;;5128049;27;20514;-67
2022/10/05 04:51:30;;;;;;;8.80;7.27;;;14.60;99.90;;;;;;5124876;27;20457;-67
2022/10/05 04:54:12;;;;;;;8.57;7.63;;;14.60;99.90;;;;;;5123768;27;20449;-66
2022/10/05 04:56:50;;;;;;;12.37;7.60;;;14.60;99.90;;;;;;5134025;27;20456;-68
2022/10/05 04:59:40;;;;;;;9.17;8.07;;;14.60;99.90;;;;;;5143092;27;20501;-67
2022/10/05 05:02:23;;;;;;;10.20;7.67;;;14.60;99.90;;;;;;5123516;27;20460;-67
2022/10/05 05:05:18;;;;;;;11.07;7.93;;;14.60;99.90;;;;;;5138257;27;20489;-67
2022/10/05 05:07:54;;;;;;;9.63;7.40;;;14.60;99.90;;;;;;5137822;27;20441;-67
2022/10/05 05:10:48;;;;;;;8.10;6.87;;;14.50;99.90;;;;;;5141439;27;21063;-67
2022/10/05 05:13:45;;;;;;;10.30;7.73;;;14.50;99.90;;;;;;5144946;27;20445;-67
2022/10/05 05:16:29;;;;;;;8.13;6.23;;;14.50;99.90;;;;;;5142903;27;20482;-67
2022/10/05 05:19:26;;;;;;;10.67;7.17;;;14.50;99.90;;;;;;5146920;27;20436;-67
2022/10/05 05:22:04;;;;;;;9.53;7.17;;;14.50;99.90;;;;;;5118379;27;20540;-67
2022/10/05 05:24:47;;;;;;;8.10;6.57;;;14.50;99.90;;;;;;5130969;27;20449;-67
2022/10/05 05:27:41;;;;;;;7.60;6.63;;;14.50;99.90;;;;;;5140249;27;20536;-67
2022/10/05 05:30:22;;;;;;;9.13;6.87;;;14.40;99.90;;;;;;5146097;27;20448;-67
2022/10/05 05:33:15;;;;;;;10.97;6.17;;;14.40;99.90;;;;;;5130908;27;20448;-67
2022/10/05 05:36:17;;;;;;;8.43;6.10;;;14.40;99.90;;;;;;5120321;27;20449;-67
2022/10/05 05:39:02;;;;;;;8.40;5.70;;;14.40;99.90;;;;;;5146307;27;20448;-67
2022/10/05 05:41:39;;;;;;;8.27;6.50;;;14.30;99.90;;;;;;5116252;27;20540;-67
2022/10/05 05:44:20;;;;;;;7.93;7.00;;;14.30;99.90;;;;;;5146055;27;20453;-67
2022/10/05 05:46:59;;;;;;;7.80;5.87;;;14.30;99.90;;;;;;5145933;27;20445;-67
2022/10/05 05:49:45;;;;;;;8.37;6.03;;;14.30;99.90;;;;;;5143042;27;20441;-67
2022/10/05 05:52:22;;;;;;;8.63;6.90;;;14.30;99.90;;;;;;5146789;27;20448;-67
2022/10/05 05:54:58;;;;;;;9.03;5.97;;;14.30;99.90;;;;;;5145138;27;20444;-67
2022/10/05 05:57:33;;;;;;;8.13;6.43;;;14.30;99.90;;;;;;5141417;27;20453;-67
2022/10/05 06:00:08;;;;;;;9.20;6.40;;;14.30;99.90;;;;;;5137834;27;20462;-67
2022/10/05 06:02:46;;;;;;;7.57;6.77;;;14.30;99.90;;;;;;5136501;27;20460;-67
2022/10/05 06:05:29;;;;;;;10.03;7.40;;;14.30;99.90;;;;;;5127741;27;20496;-67
2022/10/05 06:08:05;;;;;;;9.97;7.03;;;14.30;99.90;;;;;;5134345;27;20448;-67
2022/10/05 06:10:43;;;;;;;9.50;7.10;;;14.40;99.90;;;;;;5140680;27;20483;-67
2022/10/05 06:13:20;;;;;;;8.40;6.90;;;14.40;99.90;;;;;;5144905;27;20477;-66
2022/10/05 06:15:56;;;;;;;9.83;7.27;;;14.50;99.90;;;;;;5134752;27;20456;-67
2022/10/05 06:18:32;;;;;;;13.67;9.23;;;14.50;99.90;;;;;;5119631;27;20468;-67
2022/10/05 06:21:08;;;;;;;11.07;7.20;;;14.70;99.90;;;;;;5141091;27;20524;-67
2022/10/05 06:23:43;;;;;;;9.70;7.27;;;14.70;99.90;;;;;;5133267;27;20452;-67
2022/10/05 06:26:30;;;;;;;11.80;8.00;;;14.80;99.90;;;;;;5135530;27;20460;-67
2022/10/05 06:29:06;;;;;;;9.67;7.33;;;14.80;99.90;;;;;;5136902;27;20452;-67
2022/10/05 06:31:53;;;;;;;10.70;7.37;;;14.90;99.90;;;;;;5135290;27;20486;-67
2022/10/05 06:34:46;;;;;;;10.23;7.00;;;15.00;99.90;;;;;;5138020;27;20541;-67
2022/10/05 06:37:24;;;;;;;11.53;7.70;;;15.00;99.90;;;;;;5131733;27;20465;-67
2022/10/05 06:40:11;;;;;;;9.00;6.90;;;15.00;99.90;;;;;;5135952;27;20513;-67
2022/10/05 06:43:21;;;;;;;13.27;7.73;;;15.10;99.90;;;;;;5114734;27;20492;-67
2022/10/05 06:46:08;;;;;;;10.97;7.33;;;15.20;99.90;;;;;;5120289;27;20456;-67
2022/10/05 06:49:02;;;;;;;12.30;7.27;;;15.20;99.90;;;;;;5142545;27;20440;-67
2022/10/05 06:51:39;;;;;;;11.13;7.83;;;15.30;99.90;;;;;;5137639;27;20476;-67
2022/10/05 06:54:23;;;;;;;13.20;7.67;;;15.30;99.90;;;;;;5120649;27;20616;-67
2022/10/05 06:57:02;;;;;;;9.03;6.63;;;15.40;99.90;;;;;;5136013;27;20460;-67
2022/10/05 06:59:42;;;;;;;11.27;7.23;;;15.40;99.90;;;;;;5136260;27;20429;-67
2022/10/05 07:02:22;;;;;;;12.40;8.07;;;15.40;99.90;;;;;;5125923;27;20518;-67
2022/10/05 07:05:15;;;;;;;11.90;8.57;;;15.40;99.90;;;;;;5127998;27;20491;-67
2022/10/05 07:07:54;;;;;;;13.60;8.80;;;15.40;99.90;;;;;;5115184;27;20464;-67
2022/10/05 07:10:33;;;;;;;11.43;7.93;;;15.60;99.90;;;;;;5142240;27;20517;-67
2022/10/05 07:13:20;;;;;;;14.70;9.80;;;15.60;99.90;;;;;;5133834;27;20457;-67
2022/10/05 07:15:59;;;;;;;15.27;9.40;;;15.60;99.90;;;;;;5128845;27;20466;-67
2022/10/05 07:18:49;;;;;;;14.87;8.73;;;15.60;99.90;;;;;;5123988;27;20479;-67
2022/10/05 07:21:34;;;;;;;12.40;9.00;;;15.60;99.90;;;;;;5132722;27;20503;-67
2022/10/05 07:24:21;;;;;;;16.70;11.73;;;15.60;99.90;;;;;;5140111;27;20517;-67
2022/10/05 07:27:02;;;;;;;19.37;11.80;;;15.60;99.90;;;;;;5131881;27;20527;-67
2022/10/05 07:29:39;;;;;;;18.87;11.83;;;15.60;99.90;;;;;;5138991;27;20453;-67
2022/10/05 07:32:21;;;;;;;17.33;12.47;;;15.60;99.90;;;;;;5130052;27;20787;-68
2022/10/05 07:34:59;;;;;;;17.73;11.07;;;15.60;99.90;;;;;;5131442;27;20453;-68
2022/10/05 07:37:56;;;;;;;16.43;10.47;;;15.60;99.90;;;;;;5132408;27;20453;-68
2022/10/05 07:40:31;;;;;;;17.77;11.80;;;15.50;99.90;;;;;;5126684;27;20555;-67
2022/10/05 07:43:19;;;;;;;18.53;11.67;;;15.50;99.90;;;;;;5142221;27;20476;-68
2022/10/05 07:45:55;;;;;;;19.13;12.57;;;15.60;99.90;;;;;;5139359;27;20474;-67
2022/10/05 07:48:46;;;;;;;18.57;10.80;;;15.60;99.90;;;;;;5128653;27;20462;-67
2022/10/05 07:51:28;;;;;;;18.10;10.93;;;15.70;99.90;;;;;;5132052;27;20473;-68
2022/10/05 07:54:10;;;;;;;20.50;12.87;;;15.70;99.90;;;;;;5116073;27;20457;-67
2022/10/05 07:56:45;;;;;;;17.77;12.37;;;15.60;99.90;;;;;;5136320;27;20510;-68
2022/10/05 07:59:24;;;;;;;19.03;11.57;;;15.60;99.90;;;;;;5127902;27;20598;-67
2022/10/05 08:02:06;;;;;;;18.33;12.20;;;15.60;99.90;;;;;;5130596;27;20499;-67
2022/10/05 08:04:45;;;;;;;16.50;11.57;;;15.60;99.90;;;;;;5136011;27;20559;-68
2022/10/05 08:07:18;;;;;;;18.97;12.67;;;15.60;99.90;;;;;;5134573;27;20469;-67
2022/10/05 08:09:56;;;;;;;19.37;12.60;;;15.60;99.90;;;;;;5127781;27;20450;-67
2022/10/05 08:12:50;;;;;;;17.63;11.83;;;15.50;99.90;;;;;;5130316;27;20533;-67
2022/10/05 08:15:24;;;;;;;17.87;12.10;;;15.50;99.90;;;;;;5124225;28;20795;-67
2022/10/05 08:17:59;;;;;;;16.13;10.60;;;15.60;99.90;;;;;;5141224;27;20445;-67
2022/10/05 08:20:43;;;;;;;18.20;11.27;;;15.60;99.90;;;;;;5118991;28;20500;-66
2022/10/05 08:23:31;;;;;;;14.70;10.47;;;15.60;99.90;;;;;;5115122;28;20549;-67
2022/10/05 08:26:15;;;;;;;14.67;9.43;;;15.60;99.90;;;;;;5107418;28;20484;-67
2022/10/05 08:28:55;;;;;;;17.30;11.50;;;15.70;99.90;;;;;;5124541;28;20479;-67
2022/10/05 08:31:30;;;;;;;15.37;10.83;;;15.70;99.90;;;;;;5127591;28;20478;-67
2022/10/05 08:34:19;;;;;;;17.10;9.80;;;15.70;99.90;;;;;;5140502;27;20452;-67
2022/10/05 08:36:57;;;;;;;13.37;9.13;;;15.70;99.90;;;;;;5124213;28;20453;-68
2022/10/05 08:39:33;;;;;;;15.00;9.20;;;15.70;99.90;;;;;;5131814;28;20457;-68
2022/10/05 08:42:38;;;;;;;17.40;10.00;;;15.70;99.90;;;;;;5132765;27;20500;-67
2022/10/05 08:45:41;;;;;;;14.60;9.87;;;15.60;99.90;;;;;;5126063;27;20527;-67
2022/10/05 08:48:58;;;;;;;15.40;9.93;;;15.60;99.90;;;;;;5134847;28;20460;-67
2022/10/05 08:52:02;;;;;;;14.90;10.57;;;15.60;99.90;;;;;;5133771;28;20525;-67
2022/10/05 08:54:55;;;;;;;15.60;10.10;;;15.60;99.90;;;;;;5118017;28;20457;-66
2022/10/05 08:57:54;;;;;;;19.33;10.57;;;15.70;99.90;;;;;;5111982;28;20554;-67
2022/10/05 09:00:39;;;;;;;15.70;10.70;;;15.70;99.90;;;;;;5136136;28;20494;-67
2022/10/05 09:03:36;;;;;;;20.50;11.70;;;15.70;99.90;;;;;;5128874;27;20558;-67
2022/10/05 09:07:06;;;;;;;15.70;10.67;;;15.60;99.90;;;;;;5134351;28;20529;-67
2022/10/05 09:10:08;;;;;;;15.93;10.00;;;15.60;99.90;;;;;;5125840;28;20439;-66
2022/10/05 09:13:07;;;;;;;13.50;8.97;;;15.70;99.90;;;;;;5112932;28;20577;-67
2022/10/05 09:16:12;;;;;;;15.80;9.70;;;15.70;99.90;;;;;;5119659;28;20522;-67
2022/10/05 09:19:08;;;;;;;16.97;10.17;;;15.70;99.90;;;;;;5123248;28;20587;-67
2022/10/05 09:21:42;;;;;;;16.63;10.80;;;15.60;99.90;;;;;;5118646;28;20428;-66
2022/10/05 09:24:46;;;;;;;14.27;9.50;;;15.60;99.90;;;;;;5129874;28;20461;-66
2022/10/05 09:27:19;;;;;;;13.67;9.13;;;15.60;99.90;;;;;;5119800;27;20543;-67
2022/10/05 09:30:30;;;;;;;17.40;10.23;;;15.60;99.90;;;;;;5130862;27;21108;-67
2022/10/05 09:33:31;;;;;;;14.40;9.30;;;15.80;99.90;;;;;;5126229;27;20464;-67
2022/10/05 09:36:26;;;;;;;14.33;10.03;;;15.70;99.90;;;;;;5108379;27;20454;-67
2022/10/05 09:39:29;;;;;;;14.07;9.00;;;15.70;99.90;;;;;;5117797;27;20476;-67
2022/10/05 09:42:31;;;;;;;14.80;9.50;;;15.60;99.90;;;;;;5131324;27;20456;-68
2022/10/05 09:45:40;;;;;;;14.57;9.07;;;15.60;99.90;;;;;;5124563;27;20517;-66
2022/10/05 09:48:48;;;;;;;13.37;9.50;;;15.60;99.90;;;;;;5112953;27;20505;-67
2022/10/05 09:52:00;;;;;;;15.33;8.90;;;15.50;99.90;;;;;;5125104;27;20510;-66
2022/10/05 09:55:10;;;;;;;15.80;9.87;;;15.60;99.90;;;;;;5113185;27;20511;-66
2022/10/05 09:58:13;;;;;;;16.10;8.90;;;15.60;99.90;;;;;;5117083;27;20432;-67
2022/10/05 10:01:19;;;;;;;13.90;8.37;;;15.50;99.90;;;;;;5132913;27;20483;-67
2022/10/05 10:04:29;;;;;;;16.57;9.60;;;15.60;99.90;;;;;;5132956;27;20489;-67
2022/10/05 10:07:41;;;;;;;13.93;8.87;;;15.60;99.90;;;;;;5120844;27;20517;-67
2022/10/05 10:10:42;;;;;;;13.80;8.73;;;15.60;99.90;;;;;;5139479;27;20473;-66
2022/10/05 10:13:38;;;;;;;14.00;8.53;;;15.60;99.90;;;;;;5133326;27;20532;-67
2022/10/05 10:16:31;;;;;;;17.93;10.70;;;15.60;99.90;;;;;;5125206;27;20507;-67
2022/10/05 10:19:16;;;;;;;15.23;9.87;;;15.70;99.90;;;;;;5126311;27;20453;-68
2022/10/05 10:22:22;;;;;;;13.33;9.93;;;15.70;99.90;;;;;;5139355;27;20509;-66
2022/10/05 10:25:11;;;;;;;15.07;9.97;;;15.60;99.90;;;;;;5141097;27;20510;-66
2022/10/05 10:28:09;;;;;;;13.20;8.73;;;15.70;99.90;;;;;;5119538;27;20462;-66
2022/10/05 10:31:02;;;;;;;13.90;9.57;;;15.70;99.90;;;;;;5106811;27;20504;-66
2022/10/05 10:34:07;;;;;;;14.00;8.90;;;15.60;99.90;;;;;;5136313;27;20782;-66
2022/10/05 10:36:59;;;;;;;13.73;8.60;;;15.60;99.90;;;;;;5117853;27;20457;-66
2022/10/05 10:39:49;;;;;;;14.30;9.30;;;15.70;99.90;;;;;;5131590;27;20481;-66
2022/10/05 10:42:32;;;;;;;15.27;10.40;;;15.70;99.90;;;;;;5126588;27;20449;-66
2022/10/05 10:45:20;;;;;;;13.30;8.20;;;15.70;99.90;;;;;;5127083;27;20458;-65
2022/10/05 10:48:03;;;;;;;14.50;9.20;;;15.60;99.90;;;;;;5134806;27;20478;-66
2022/10/05 10:51:04;;;;;;;20.87;12.00;;;15.60;99.90;;;;;;5131074;27;20461;-65
2022/10/05 10:54:04;;;;;;;22.13;12.63;;;15.60;99.90;;;;;;5133994;27;20498;-66
2022/10/05 10:56:56;;;;;;;21.57;13.07;;;15.60;99.90;;;;;;5123443;27;20457;-66
2022/10/05 11:00:15;;;;;;;18.57;12.40;;;15.60;99.90;;;;;;5133388;27;20472;-66
2022/10/05 11:03:26;;;;;;;18.57;12.40;;;15.70;99.90;;;;;;5121645;27;20485;-66
2022/10/05 11:06:15;;;;;;;20.30;11.27;;;15.70;99.90;;;;;;5087098;28;20522;-66
2022/10/05 11:09:26;;;;;;;18.03;10.47;;;15.70;99.90;;;;;;5126835;27;20466;-66
2022/10/05 11:12:46;;;;;;;16.90;10.80;;;15.60;99.90;;;;;;5111501;27;20495;-66
2022/10/05 11:15:56;;;;;;;15.27;11.00;;;15.60;99.90;;;;;;5131433;27;20503;-66
2022/10/05 11:18:42;;;;;;;17.70;10.67;;;15.60;99.90;;;;;;5128984;27;20453;-66
2022/10/05 11:21:29;;;;;;;19.93;9.00;;;15.60;99.90;;;;;;5138261;27;20505;-66
2022/10/05 11:24:44;;;;;;;15.90;9.93;;;15.60;99.90;;;;;;5141921;27;20537;-66
2022/10/05 11:27:55;;;;;;;16.67;10.73;;;15.60;99.90;;;;;;5134166;27;20509;-66
2022/10/05 11:31:00;;;;;;;12.17;9.50;;;15.60;99.90;;;;;;5135002;27;20472;-66
2022/10/05 11:34:04;;;;;;;18.77;9.93;;;15.60;99.90;;;;;;5131434;27;20452;-66
2022/10/05 11:37:08;;;;;;;16.07;10.53;;;15.60;99.90;;;;;;5134590;27;20893;-66
2022/10/05 11:39:44;;;;;;;15.30;9.50;;;15.60;99.90;;;;;;5122722;27;20542;-66
2022/10/05 11:43:03;;;;;;;15.60;9.40;;;15.70;99.90;;;;;;5133819;27;20518;-66
2022/10/05 11:45:52;;;;;;;16.70;10.53;;;15.60;99.90;;;;;;5083181;28;20496;-66
2022/10/05 11:48:46;;;;;;;16.03;11.00;;;15.70;99.90;;;;;;5091490;28;20444;-66
2022/10/05 11:51:39;;;;;;;17.30;11.30;;;15.70;99.90;;;;;;5056650;28;20507;-66
2022/10/05 11:54:26;;;;;;;12.67;8.63;;;15.60;99.90;;;;;;5098876;28;20505;-67
2022/10/05 11:57:02;;;;;;;15.50;9.90;;;15.70;99.90;;;;;;5096896;28;20455;-66
2022/10/05 11:59:39;;;;;;;16.90;11.00;;;15.70;99.90;;;;;;5097265;28;20519;-67
2022/10/05 12:02:35;;;;;;;15.63;10.40;;;15.70;99.90;;;;;;5094465;28;20643;-67
2022/10/05 12:05:18;;;;;;;13.80;10.00;;;15.70;99.90;;;;;;5071581;28;20495;-67
2022/10/05 12:08:03;;;;;;;13.67;10.03;;;15.70;99.90;;;;;;5086137;28;20573;-66
2022/10/05 12:10:43;;;;;;;15.10;9.60;;;15.70;99.90;;;;;;5078665;28;20494;-67
2022/10/05 12:13:24;;;;;;;15.77;9.50;;;15.70;99.90;;;;;;5074809;28;20538;-67
2022/10/05 12:16:00;;;;;;;13.73;9.70;;;15.70;99.90;;;;;;5070625;28;20433;-66
2022/10/05 12:18:53;;;;;;;13.33;8.23;;;15.70;99.90;;;;;;5092276;28;20485;-67
2022/10/05 12:21:33;;;;;;;12.87;9.07;;;15.70;99.90;;;;;;5137584;28;20540;-67
2022/10/05 12:24:10;;;;;;;15.23;9.13;;;15.70;99.90;;;;;;5132125;28;20545;-67
2022/10/05 12:26:48;;;;;;;19.07;9.80;;;15.70;99.90;;;;;;5118037;28;20474;-67
2022/10/05 12:29:24;;;;;;;17.87;10.63;;;15.70;99.90;;;;;;5142067;27;21048;-67
2022/10/05 12:32:01;;;;;;;15.13;9.83;;;15.80;99.90;;;;;;5130126;27;20457;-67
2022/10/05 12:34:48;;;;;;;16.83;9.80;;;15.80;99.90;;;;;;5138919;28;20432;-67
2022/10/05 12:37:41;;;;;;;16.50;9.50;;;15.70;99.90;;;;;;5112511;28;20539;-67
2022/10/05 12:40:33;;;;;;;16.23;11.13;;;15.70;99.90;;;;;;5122422;28;20854;-67
2022/10/05 12:43:12;;;;;;;20.10;11.67;;;15.80;99.90;;;;;;5135549;28;20472;-66
2022/10/05 12:45:57;;;;;;;16.10;10.93;;;15.70;99.90;;;;;;5138628;27;20456;-66
2022/10/05 12:48:43;;;;;;;16.60;9.50;;;15.70;99.90;;;;;;5127555;28;20461;-67
2022/10/05 12:51:23;;;;;;;15.30;9.33;;;15.70;99.90;;;;;;5140008;27;20514;-66
2022/10/05 12:54:00;;;;;;;12.87;8.43;;;15.70;99.90;;;;;;5132679;27;20461;-66
2022/10/05 12:56:42;;;;;;;16.23;9.97;;;15.80;99.90;;;;;;5121440;28;20468;-67
2022/10/05 12:59:20;;;;;;;15.70;10.37;;;15.70;99.90;;;;;;5137097;27;20444;-66
2022/10/05 13:01:58;;;;;;;20.30;11.30;;;15.80;99.90;;;;;;5128595;27;20465;-66
2022/10/05 13:04:40;;;;;;;16.63;9.80;;;15.80;99.90;;;;;;5132221;27;20496;-66
2022/10/05 13:07:37;;;;;;;16.93;10.37;;;15.70;99.90;;;;;;5133568;27;20865;-67
2022/10/05 13:10:23;;;;;;;20.47;10.67;;;15.70;99.90;;;;;;5124839;27;20455;-67
2022/10/05 13:13:04;;;;;;;18.77;9.57;;;15.80;99.90;;;;;;5135155;27;20452;-66
2022/10/05 13:15:45;;;;;;;15.10;10.50;;;15.70;99.90;;;;;;5138022;27;20452;-67
2022/10/05 13:18:26;;;;;;;15.60;9.80;;;15.70;99.90;;;;;;5146032;27;20452;-67
2022/10/05 13:21:04;;;;;;;16.93;10.83;;;15.70;99.90;;;;;;5145099;27;20513;-67
2022/10/05 13:23:49;;;;;;;15.23;9.90;;;15.70;99.90;;;;;;5146873;27;20442;-67
2022/10/05 13:26:33;;;;;;;18.10;10.60;;;15.60;99.90;;;;;;5145621;27;20456;-67
2022/10/05 13:29:14;;;;;;;21.47;12.60;;;15.60;99.90;;;;;;5143866;27;20497;-67
2022/10/05 13:31:48;;;;;;;18.20;10.73;;;15.60;99.90;;;;;;5145589;27;20444;-67
2022/10/05 13:34:28;;;;;;;20.83;10.40;;;15.70;99.90;;;;;;5136266;27;20452;-68
2022/10/05 13:37:13;;;;;;;16.13;10.00;;;15.60;99.90;;;;;;5135615;27;20444;-67
2022/10/05 13:40:05;;;;;;;17.63;10.80;;;15.70;99.90;;;;;;5129135;27;20497;-67
2022/10/05 13:42:41;;;;;;;17.30;9.43;;;15.70;99.90;;;;;;5134138;27;20533;-67
2022/10/05 13:45:19;;;;;;;16.80;10.10;;;15.70;99.90;;;;;;5126241;27;20524;-66
2022/10/05 13:48:09;;;;;;;23.70;10.90;;;15.60;99.90;;;;;;5124130;27;20453;-67
2022/10/05 13:50:48;;;;;;;20.00;10.73;;;15.60;99.90;;;;;;5146139;27;20436;-67
2022/10/05 13:53:27;;;;;;;16.87;11.20;;;15.60;99.90;;;;;;5114739;27;20636;-67
2022/10/05 13:56:03;;;;;;;18.50;11.70;;;15.60;99.90;;;;;;5145193;27;20521;-67
2022/10/05 13:58:41;;;;;;;16.80;10.77;;;15.60;99.90;;;;;;5145389;27;20457;-67
2022/10/05 14:01:17;;;;;;;19.57;12.00;;;15.50;99.90;;;;;;5142655;27;20460;-66
2022/10/05 14:04:07;;;;;;;20.90;10.70;;;15.60;99.90;;;;;;5123672;27;20456;-67
2022/10/05 14:06:39;;;;;;;19.13;10.20;;;15.60;99.90;;;;;;5145272;27;20545;-67
2022/10/05 14:09:26;;;;;;;20.40;11.00;;;15.60;99.90;;;;;;5145679;27;20441;-67